Time;durP1;ratioP1;P1;durP2;ratioP2;P2;SDS_P1;SDS_P2;PMS_P1;PMS_P2;Temp;Humidity;BMP_temperature;BMP_pressure;BME280_temperature;BME280_humidity;BME280_pressure;Samples;Min_cycle;Max_cycle;Signal;HPM_P1;HPM_P2
2021/01/23 00:02:12;;;;;;;4.70;2.95;;;1.30;99.90;;;;;;5068458;28;20113;-67
2021/01/23 00:04:41;;;;;;;4.07;2.92;;;1.40;99.90;;;;;;5069465;28;20471;-67
2021/01/23 00:07:07;;;;;;;4.57;3.17;;;1.40;99.90;;;;;;5069452;28;20101;-67
2021/01/23 00:09:34;;;;;;;5.97;4.03;;;1.40;99.90;;;;;;5069780;28;20052;-67
2021/01/23 00:12:00;;;;;;;5.72;3.40;;;1.50;99.90;;;;;;5069301;28;20048;-67
2021/01/23 00:14:28;;;;;;;6.18;3.25;;;1.60;99.90;;;;;;5070122;28;20053;-67
2021/01/23 00:16:55;;;;;;;4.30;3.03;;;1.60;99.90;;;;;;5068555;28;20086;-67
2021/01/23 00:19:21;;;;;;;6.05;3.97;;;1.70;99.90;;;;;;5068878;28;20125;-67
2021/01/23 00:21:48;;;;;;;5.53;3.03;;;1.70;99.90;;;;;;5069898;28;20541;-67
2021/01/23 00:24:14;;;;;;;3.70;2.80;;;1.80;99.90;;;;;;5068921;28;20102;-67
2021/01/23 00:26:44;;;;;;;4.97;3.25;;;1.80;99.90;;;;;;5067845;28;20454;-67
2021/01/23 00:29:14;;;;;;;6.93;3.30;;;1.80;99.90;;;;;;5068681;28;20056;-67
2021/01/23 00:31:42;;;;;;;5.65;2.90;;;1.90;99.90;;;;;;5069121;28;20060;-67
2021/01/23 00:34:10;;;;;;;5.63;3.25;;;1.90;99.90;;;;;;5069602;28;20502;-67
2021/01/23 00:36:37;;;;;;;5.65;3.13;;;1.90;99.90;;;;;;5072171;28;20072;-67
2021/01/23 00:39:05;;;;;;;6.40;2.95;;;1.90;99.90;;;;;;5067015;28;20070;-67
2021/01/23 00:41:32;;;;;;;4.10;3.00;;;2.00;99.90;;;;;;5063783;28;20048;-67
2021/01/23 00:43:59;;;;;;;4.75;3.00;;;2.00;99.90;;;;;;5070688;28;20326;-67
2021/01/23 00:46:25;;;;;;;5.13;3.20;;;2.00;99.90;;;;;;5073276;28;20045;-67
2021/01/23 00:48:52;;;;;;;5.65;3.80;;;2.00;99.90;;;;;;5072749;28;20048;-67
2021/01/23 00:51:19;;;;;;;6.10;3.22;;;2.00;99.90;;;;;;5059378;28;20430;-67
2021/01/23 00:53:46;;;;;;;5.78;3.13;;;2.10;99.90;;;;;;5072828;28;20424;-67
2021/01/23 00:56:13;;;;;;;5.97;2.97;;;2.10;99.90;;;;;;5072593;28;20106;-67
2021/01/23 00:58:41;;;;;;;6.30;3.35;;;2.10;99.90;;;;;;5073503;28;20129;-67
2021/01/23 01:01:07;;;;;;;4.45;3.13;;;2.10;99.90;;;;;;5072580;28;20446;-67
2021/01/23 01:03:34;;;;;;;5.13;3.45;;;2.10;99.90;;;;;;5073470;28;20517;-67
2021/01/23 01:06:01;;;;;;;6.03;2.90;;;2.10;99.90;;;;;;5061385;28;20048;-67
2021/01/23 01:08:28;;;;;;;6.97;3.40;;;2.10;99.90;;;;;;5072427;28;20094;-67
2021/01/23 01:10:55;;;;;;;6.70;3.25;;;2.10;99.90;;;;;;5072600;28;20044;-67
2021/01/23 01:13:22;;;;;;;8.20;3.58;;;2.10;99.90;;;;;;5071248;28;20059;-67
2021/01/23 01:15:52;;;;;;;5.22;2.80;;;2.00;99.90;;;;;;5072592;28;20045;-67
2021/01/23 01:18:19;;;;;;;4.47;2.97;;;2.00;99.90;;;;;;5072651;28;20177;-67
2021/01/23 01:20:45;;;;;;;8.00;3.15;;;2.00;99.90;;;;;;5072099;28;20045;-67
2021/01/23 01:23:11;;;;;;;4.68;3.05;;;2.00;99.90;;;;;;5072305;28;20533;-67
2021/01/23 01:25:38;;;;;;;7.38;3.08;;;2.00;99.90;;;;;;5070821;28;20044;-67
2021/01/23 01:28:04;;;;;;;4.07;3.00;;;2.00;99.90;;;;;;5067129;28;20552;-67
2021/01/23 01:30:31;;;;;;;4.43;2.85;;;2.00;99.90;;;;;;5070570;28;20406;-67
2021/01/23 01:32:57;;;;;;;5.35;2.95;;;2.00;99.90;;;;;;5072550;28;20473;-67
2021/01/23 01:35:24;;;;;;;7.57;2.95;;;2.00;99.90;;;;;;5071753;28;20052;-67
2021/01/23 01:37:51;;;;;;;4.28;2.58;;;2.00;99.90;;;;;;5071991;28;20044;-67
2021/01/23 01:40:17;;;;;;;5.63;3.92;;;2.00;99.90;;;;;;5071755;28;20181;-67
2021/01/23 01:42:44;;;;;;;5.97;2.83;;;2.00;99.90;;;;;;5069549;28;20056;-67
2021/01/23 01:45:12;;;;;;;6.50;2.67;;;2.00;99.90;;;;;;5071700;28;20052;-67
2021/01/23 01:47:39;;;;;;;7.57;3.60;;;2.00;99.90;;;;;;5070829;28;20098;-67
2021/01/23 01:50:07;;;;;;;5.82;3.65;;;2.00;99.90;;;;;;5073567;28;20052;-67
2021/01/23 01:52:35;;;;;;;4.82;3.53;;;2.00;99.90;;;;;;5063511;28;20075;-67
2021/01/23 01:55:02;;;;;;;6.00;3.25;;;2.00;99.90;;;;;;5072089;28;20483;-67
2021/01/23 01:57:30;;;;;;;5.60;3.40;;;2.00;99.90;;;;;;5073056;28;20092;-67
2021/01/23 01:59:57;;;;;;;8.40;3.50;;;2.00;99.90;;;;;;5071069;28;20052;-67
2021/01/23 02:03:04;;;;;;;5.03;3.42;;;2.10;99.90;;;;;;5071963;28;20502;-67
2021/01/23 02:05:33;;;;;;;5.47;3.90;;;2.10;99.90;;;;;;5071699;28;20052;-67
2021/01/23 02:08:26;;;;;;;9.07;3.90;;;2.20;99.90;;;;;;5072117;28;20049;-67
2021/01/23 02:11:01;;;;;;;6.72;3.97;;;2.20;99.90;;;;;;5050158;28;20049;-67
2021/01/23 02:13:31;;;;;;;10.52;4.43;;;2.30;99.90;;;;;;5069929;28;20052;-67
2021/01/23 02:16:07;;;;;;;8.18;3.70;;;2.30;99.90;;;;;;5057120;28;20098;-67
2021/01/23 02:18:41;;;;;;;8.65;4.80;;;2.30;99.90;;;;;;5071157;28;20040;-67
2021/01/23 02:21:31;;;;;;;7.20;4.15;;;2.40;99.90;;;;;;5070314;28;20062;-68
2021/01/23 02:24:02;;;;;;;7.22;3.92;;;2.40;99.90;;;;;;5071159;28;20075;-67
2021/01/23 02:26:44;;;;;;;6.75;3.50;;;2.40;99.90;;;;;;5070480;28;20061;-67
2021/01/23 02:29:21;;;;;;;6.82;4.40;;;2.50;99.90;;;;;;5070543;28;20057;-67
2021/01/23 02:31:54;;;;;;;6.47;4.10;;;2.50;99.90;;;;;;5070595;28;20052;-67
2021/01/23 02:34:25;;;;;;;8.88;4.35;;;2.50;99.90;;;;;;5068870;28;20052;-67
2021/01/23 02:36:54;;;;;;;7.07;4.32;;;2.50;99.90;;;;;;5070655;28;20136;-67
2021/01/23 02:39:22;;;;;;;5.60;3.72;;;2.50;99.90;;;;;;5070704;28;20044;-67
2021/01/23 02:41:51;;;;;;;9.53;4.50;;;2.60;99.90;;;;;;5069523;28;20147;-67
2021/01/23 02:44:17;;;;;;;8.75;4.30;;;2.60;99.90;;;;;;5069679;28;20310;-67
2021/01/23 02:46:45;;;;;;;5.43;3.72;;;2.60;99.90;;;;;;5071318;28;20056;-67
2021/01/23 02:49:13;;;;;;;6.85;3.90;;;2.60;99.90;;;;;;5071705;28;20072;-67
2021/01/23 02:52:18;;;;;;;6.13;3.60;;;2.60;99.90;;;;;;5070058;28;20087;-67
2021/01/23 02:55:08;;;;;;;6.68;3.88;;;2.60;99.90;;;;;;5052200;28;20056;-67
2021/01/23 02:57:38;;;;;;;8.27;4.07;;;2.60;99.90;;;;;;5070201;28;20052;-67
2021/01/23 03:00:10;;;;;;;7.90;4.55;;;2.60;99.90;;;;;;5069620;28;20044;-67
2021/01/23 03:03:03;;;;;;;9.38;5.03;;;2.60;99.90;;;;;;5070301;28;20068;-67
2021/01/23 03:05:32;;;;;;;8.75;4.55;;;2.70;99.90;;;;;;5067149;28;20048;-67
2021/01/23 03:08:01;;;;;;;7.93;3.97;;;2.60;99.90;;;;;;5068509;28;20056;-67
2021/01/23 03:10:39;;;;;;;9.25;4.90;;;2.70;99.90;;;;;;5065152;28;20110;-68
2021/01/23 03:13:08;;;;;;;8.23;4.15;;;2.70;99.90;;;;;;5064146;28;20078;-67
2021/01/23 03:15:35;;;;;;;8.52;4.30;;;2.70;99.90;;;;;;5070069;28;20052;-67
2021/01/23 03:18:03;;;;;;;7.18;4.30;;;2.70;99.90;;;;;;5069716;28;20162;-67
2021/01/23 03:20:30;;;;;;;11.60;4.90;;;2.70;99.90;;;;;;5070555;28;20400;-67
2021/01/23 03:22:57;;;;;;;6.50;3.90;;;2.70;99.90;;;;;;5069818;28;20052;-67
2021/01/23 03:25:25;;;;;;;11.75;5.32;;;2.70;99.90;;;;;;5070147;28;20080;-67
2021/01/23 03:27:53;;;;;;;9.32;5.07;;;2.70;99.90;;;;;;5073431;28;20090;-67
2021/01/23 03:30:20;;;;;;;7.15;5.07;;;2.70;99.90;;;;;;5060522;28;20109;-67
2021/01/23 03:32:48;;;;;;;9.52;4.88;;;2.70;99.90;;;;;;5069814;28;20406;-67
2021/01/23 03:35:17;;;;;;;8.57;4.50;;;2.70;99.90;;;;;;5069958;28;20399;-67
2021/01/23 03:37:43;;;;;;;6.70;4.37;;;2.70;99.90;;;;;;5069372;28;20044;-67
2021/01/23 03:40:10;;;;;;;9.07;4.47;;;2.70;99.90;;;;;;5070296;28;20040;-67
2021/01/23 03:42:37;;;;;;;9.80;4.35;;;2.80;99.90;;;;;;5068518;28;20048;-67
2021/01/23 03:45:09;;;;;;;6.25;4.30;;;2.80;99.90;;;;;;5070121;28;20049;-67
2021/01/23 03:47:36;;;;;;;7.53;4.53;;;2.80;99.90;;;;;;5070272;28;20048;-67
2021/01/23 03:50:06;;;;;;;7.38;4.45;;;2.80;99.90;;;;;;5071020;28;20040;-67
2021/01/23 03:52:33;;;;;;;9.13;4.88;;;2.80;99.90;;;;;;5069578;28;20140;-67
2021/01/23 03:55:04;;;;;;;8.70;4.50;;;2.80;99.90;;;;;;5067792;28;20056;-67
2021/01/23 03:57:31;;;;;;;8.15;4.97;;;2.90;99.90;;;;;;5067955;28;20468;-67
2021/01/23 03:59:58;;;;;;;12.20;4.88;;;2.90;99.90;;;;;;5070380;28;20041;-67
2021/01/23 04:02:24;;;;;;;10.98;5.35;;;2.90;99.90;;;;;;5069856;28;20442;-67
2021/01/23 04:04:51;;;;;;;8.68;4.68;;;2.90;99.90;;;;;;5070304;28;20064;-67
2021/01/23 04:07:17;;;;;;;12.38;5.43;;;2.90;99.90;;;;;;5069851;28;20114;-67
2021/01/23 04:09:45;;;;;;;7.88;4.68;;;2.90;99.90;;;;;;5070589;28;20403;-67
2021/01/23 04:12:12;;;;;;;10.18;4.90;;;2.90;99.90;;;;;;5072767;28;20045;-67
2021/01/23 04:14:39;;;;;;;7.55;4.75;;;3.00;99.90;;;;;;5073891;28;20052;-67
2021/01/23 04:17:06;;;;;;;9.23;5.15;;;2.90;99.90;;;;;;5074402;28;20056;-67
2021/01/23 04:19:32;;;;;;;7.78;4.50;;;2.90;99.90;;;;;;5074334;28;20052;-67
2021/01/23 04:21:59;;;;;;;9.02;5.10;;;2.90;99.90;;;;;;5074304;28;20059;-67
2021/01/23 04:24:25;;;;;;;9.85;5.78;;;2.90;99.90;;;;;;5074251;28;20094;-67
2021/01/23 04:26:52;;;;;;;10.68;5.22;;;2.90;99.90;;;;;;5074341;28;20492;-67
2021/01/23 04:29:18;;;;;;;11.35;4.38;;;2.90;99.90;;;;;;5073265;28;20430;-67
2021/01/23 04:31:45;;;;;;;8.88;4.75;;;2.90;99.90;;;;;;5073936;28;20601;-67
2021/01/23 04:34:11;;;;;;;8.93;4.63;;;2.90;99.90;;;;;;5073967;28;20389;-67
2021/01/23 04:36:40;;;;;;;10.20;4.57;;;2.90;99.90;;;;;;5093633;28;20479;-67
2021/01/23 04:39:07;;;;;;;8.50;4.90;;;2.90;99.90;;;;;;5073416;28;20053;-67
2021/01/23 04:41:33;;;;;;;5.90;3.92;;;2.80;99.90;;;;;;5071802;28;20048;-67
2021/01/23 04:44:00;;;;;;;9.55;4.70;;;2.80;99.90;;;;;;5073653;28;20507;-67
2021/01/23 04:46:29;;;;;;;8.75;5.10;;;2.80;99.90;;;;;;5073500;28;20438;-68
2021/01/23 04:49:02;;;;;;;10.40;4.88;;;2.80;99.90;;;;;;5073031;28;20048;-67
2021/01/23 04:51:28;;;;;;;10.30;4.78;;;2.80;99.90;;;;;;5073392;28;20052;-67
2021/01/23 04:53:55;;;;;;;9.73;5.60;;;2.80;99.90;;;;;;5073947;28;20056;-67
2021/01/23 04:56:24;;;;;;;5.70;3.92;;;2.80;99.90;;;;;;5073943;28;20055;-66
2021/01/23 04:59:46;;;;;;;7.13;4.28;;;2.80;99.90;;;;;;5074136;28;20048;-66
2021/01/23 05:02:20;;;;;;;7.97;4.32;;;2.80;99.90;;;;;;5073039;28;20041;-67
2021/01/23 05:05:05;;;;;;;10.75;4.82;;;2.80;99.90;;;;;;5074559;28;20059;-67
2021/01/23 05:07:39;;;;;;;8.32;4.18;;;2.80;99.90;;;;;;5072938;28;20395;-67
2021/01/23 05:10:23;;;;;;;5.82;3.65;;;2.80;99.90;;;;;;5074541;28;20086;-67
2021/01/23 05:12:50;;;;;;;9.88;4.80;;;2.90;99.90;;;;;;5071937;28;20044;-68
2021/01/23 05:15:24;;;;;;;9.55;5.43;;;2.90;99.90;;;;;;5068583;28;20127;-68
2021/01/23 05:17:55;;;;;;;7.78;4.50;;;2.90;99.90;;;;;;5073694;28;20041;-68
2021/01/23 05:20:42;;;;;;;8.15;4.57;;;2.90;99.90;;;;;;5074509;28;20040;-68
2021/01/23 05:23:19;;;;;;;7.57;4.22;;;2.90;99.90;;;;;;5062535;28;20214;-67
2021/01/23 05:25:55;;;;;;;9.73;4.57;;;2.90;99.90;;;;;;5071743;28;20051;-67
2021/01/23 05:28:28;;;;;;;8.05;4.20;;;3.00;99.90;;;;;;5073649;28;20044;-67
2021/01/23 05:30:55;;;;;;;6.85;4.15;;;3.00;99.90;;;;;;5071517;28;20066;-67
2021/01/23 05:33:34;;;;;;;7.00;3.88;;;3.00;99.90;;;;;;5066181;28;20058;-67
2021/01/23 05:36:05;;;;;;;11.30;4.43;;;3.00;99.90;;;;;;5061462;28;20080;-67
2021/01/23 05:38:34;;;;;;;8.80;4.43;;;3.00;99.90;;;;;;5074318;28;20052;-67
2021/01/23 05:41:08;;;;;;;10.00;4.50;;;3.00;99.90;;;;;;5072687;28;20138;-67
2021/01/23 05:43:40;;;;;;;10.20;5.00;;;3.00;99.90;;;;;;5073125;28;20049;-67
2021/01/23 05:46:10;;;;;;;10.00;5.20;;;3.00;99.90;;;;;;5073373;28;20072;-67
2021/01/23 05:48:43;;;;;;;8.05;4.55;;;3.00;99.90;;;;;;5073968;28;20092;-67
2021/01/23 05:51:10;;;;;;;8.10;4.22;;;3.00;99.90;;;;;;5069493;28;20052;-67
2021/01/23 05:53:37;;;;;;;7.18;3.85;;;3.00;99.90;;;;;;5069768;28;20482;-67
2021/01/23 05:56:04;;;;;;;8.50;3.72;;;3.00;99.90;;;;;;5072622;28;20052;-67
2021/01/23 05:58:32;;;;;;;8.27;3.72;;;3.00;99.90;;;;;;5073113;28;20049;-67
2021/01/23 06:01:01;;;;;;;7.20;3.55;;;3.10;99.90;;;;;;5070488;28;20060;-67
2021/01/23 06:03:33;;;;;;;7.43;4.10;;;3.10;99.90;;;;;;5069281;28;20049;-67
2021/01/23 06:05:59;;;;;;;6.75;3.83;;;3.10;99.90;;;;;;5072029;28;20066;-67
2021/01/23 06:08:46;;;;;;;9.27;4.13;;;3.10;99.90;;;;;;5072409;28;20063;-67
2021/01/23 06:11:36;;;;;;;9.05;3.75;;;3.10;99.90;;;;;;5072001;28;20128;-67
2021/01/23 06:14:03;;;;;;;6.82;4.30;;;3.10;99.90;;;;;;5057405;28;20053;-67
2021/01/23 06:16:31;;;;;;;6.90;4.03;;;3.00;99.90;;;;;;5072448;28;20472;-67
2021/01/23 06:19:05;;;;;;;6.05;3.47;;;3.10;99.90;;;;;;5072679;28;20048;-67
2021/01/23 06:21:57;;;;;;;7.13;4.15;;;3.10;99.90;;;;;;5068316;28;20047;-67
2021/01/23 06:24:32;;;;;;;8.23;4.25;;;3.00;99.90;;;;;;5068308;28;20080;-67
2021/01/23 06:27:00;;;;;;;8.82;3.92;;;3.00;99.90;;;;;;5071524;28;20051;-67
2021/01/23 06:29:42;;;;;;;8.60;3.85;;;3.00;99.90;;;;;;5071664;28;20474;-67
2021/01/23 06:32:12;;;;;;;6.78;3.95;;;3.00;99.90;;;;;;5071270;28;20480;-67
2021/01/23 06:34:47;;;;;;;7.13;4.28;;;3.00;99.90;;;;;;5071403;28;20467;-67
2021/01/23 06:37:39;;;;;;;7.25;3.90;;;3.00;99.90;;;;;;5071611;28;20131;-67
2021/01/23 06:40:16;;;;;;;7.85;3.90;;;3.10;99.90;;;;;;5072258;28;20055;-67
2021/01/23 06:42:47;;;;;;;7.47;4.20;;;3.10;99.90;;;;;;5070110;28;20050;-67
2021/01/23 06:45:25;;;;;;;5.72;3.65;;;3.10;99.90;;;;;;5070936;28;20079;-67
2021/01/23 06:47:57;;;;;;;5.70;3.07;;;3.10;99.90;;;;;;5072035;28;20079;-67
2021/01/23 06:50:36;;;;;;;7.65;4.07;;;3.10;99.90;;;;;;5070709;28;20090;-67
2021/01/23 06:53:05;;;;;;;6.15;3.70;;;3.10;99.90;;;;;;5070974;28;20116;-67
2021/01/23 06:55:46;;;;;;;5.90;3.50;;;3.10;99.90;;;;;;5072952;28;20322;-67
2021/01/23 06:58:17;;;;;;;7.45;4.03;;;3.20;99.90;;;;;;5075336;28;20051;-67
2021/01/23 07:00:45;;;;;;;8.07;4.00;;;3.20;99.90;;;;;;5069393;28;20080;-67
2021/01/23 07:03:15;;;;;;;7.80;4.00;;;3.30;99.90;;;;;;5070261;28;20495;-67
2021/01/23 07:05:50;;;;;;;8.52;3.88;;;3.30;99.90;;;;;;5073491;28;20343;-67
2021/01/23 07:08:36;;;;;;;7.72;3.95;;;3.40;99.90;;;;;;5070500;28;20139;-67
2021/01/23 07:11:12;;;;;;;7.38;4.03;;;3.40;99.90;;;;;;5068625;28;20057;-67
2021/01/23 07:14:08;;;;;;;8.48;4.15;;;3.50;99.90;;;;;;5069634;28;20048;-67
2021/01/23 07:16:36;;;;;;;12.18;5.13;;;3.60;99.90;;;;;;5071081;28;20510;-67
2021/01/23 07:19:07;;;;;;;7.80;4.77;;;3.60;99.90;;;;;;5070791;28;20127;-67
2021/01/23 07:21:41;;;;;;;11.32;4.68;;;3.60;99.90;;;;;;5080718;28;20290;-67
2021/01/23 07:24:09;;;;;;;9.23;4.43;;;3.70;99.90;;;;;;5071052;28;20500;-67
2021/01/23 07:26:37;;;;;;;10.50;4.32;;;3.70;99.90;;;;;;5075101;28;20060;-67
2021/01/23 07:29:03;;;;;;;7.90;4.43;;;3.70;99.90;;;;;;5070202;28;20502;-67
2021/01/23 07:31:31;;;;;;;7.90;4.35;;;3.80;99.90;;;;;;5064539;28;20041;-67
2021/01/23 07:34:00;;;;;;;10.73;4.93;;;3.80;99.90;;;;;;5060384;28;20036;-67
2021/01/23 07:36:41;;;;;;;7.47;4.40;;;3.80;99.90;;;;;;5071214;28;20044;-68
2021/01/23 07:39:13;;;;;;;8.30;4.30;;;3.80;99.90;;;;;;5070886;28;20048;-68
2021/01/23 07:42:08;;;;;;;11.90;4.15;;;3.80;99.90;;;;;;5070803;28;20083;-68
2021/01/23 07:44:35;;;;;;;8.20;4.20;;;3.90;99.90;;;;;;5060634;28;20094;-67
2021/01/23 07:47:01;;;;;;;7.30;4.00;;;3.90;99.90;;;;;;5070999;28;20059;-67
2021/01/23 07:49:28;;;;;;;7.88;4.25;;;3.90;99.90;;;;;;5070392;28;20448;-67
2021/01/23 07:52:08;;;;;;;7.80;4.10;;;3.90;99.90;;;;;;5068887;28;20079;-67
2021/01/23 07:54:52;;;;;;;8.35;4.63;;;3.90;99.90;;;;;;5070887;28;20044;-67
2021/01/23 07:57:18;;;;;;;7.53;3.67;;;3.90;99.90;;;;;;5067557;28;20468;-65
2021/01/23 07:59:45;;;;;;;7.50;4.53;;;3.90;99.90;;;;;;5059950;28;20041;-66
2021/01/23 08:02:12;;;;;;;8.35;4.68;;;3.90;99.90;;;;;;5069923;28;20568;-67
2021/01/23 08:04:40;;;;;;;6.30;4.03;;;3.90;99.90;;;;;;5070711;28;20143;-66
2021/01/23 08:07:27;;;;;;;8.00;4.13;;;3.90;99.90;;;;;;5070263;28;20127;-66
2021/01/23 08:10:23;;;;;;;7.18;3.72;;;3.90;99.90;;;;;;5067597;28;20056;-66
2021/01/23 08:12:57;;;;;;;9.35;4.55;;;3.90;99.90;;;;;;5058505;28;20132;-66
2021/01/23 08:15:30;;;;;;;8.05;4.40;;;3.90;99.90;;;;;;5070402;28;20139;-67
2021/01/23 08:17:57;;;;;;;7.70;4.20;;;3.90;99.90;;;;;;5070826;28;20051;-66
2021/01/23 08:20:37;;;;;;;10.15;4.10;;;3.90;99.90;;;;;;5070694;28;20059;-66
2021/01/23 08:23:11;;;;;;;9.27;4.63;;;3.90;99.90;;;;;;5071274;28;20041;-66
2021/01/23 08:25:49;;;;;;;8.95;4.03;;;3.90;99.90;;;;;;5071461;28;20536;-66
2021/01/23 08:28:23;;;;;;;9.60;4.63;;;3.90;99.90;;;;;;5066401;28;20159;-66
2021/01/23 08:30:49;;;;;;;8.07;4.45;;;3.90;99.90;;;;;;5070698;28;20475;-66
2021/01/23 08:33:16;;;;;;;8.88;5.07;;;4.00;99.90;;;;;;5070895;28;20049;-66
2021/01/23 08:35:42;;;;;;;10.15;4.28;;;4.00;99.90;;;;;;5070680;28;20050;-66
2021/01/23 08:38:09;;;;;;;8.30;4.47;;;4.00;99.90;;;;;;5071109;28;20397;-66
2021/01/23 08:40:36;;;;;;;8.27;4.20;;;4.00;99.90;;;;;;5070941;28;20752;-66
2021/01/23 08:43:02;;;;;;;7.95;4.13;;;4.00;99.90;;;;;;5070484;28;20051;-66
2021/01/23 08:45:29;;;;;;;5.90;3.90;;;4.10;99.90;;;;;;5069985;28;20128;-66
2021/01/23 08:47:55;;;;;;;7.75;4.28;;;4.10;99.90;;;;;;5070649;28;20458;-66
2021/01/23 08:50:22;;;;;;;6.55;3.90;;;4.20;99.90;;;;;;5071060;28;20471;-66
2021/01/23 08:52:49;;;;;;;8.95;4.10;;;4.20;99.90;;;;;;5071060;28;20443;-66
2021/01/23 08:55:15;;;;;;;8.23;4.43;;;4.20;99.90;;;;;;5070346;28;20467;-66
2021/01/23 08:57:41;;;;;;;8.60;4.72;;;4.30;99.90;;;;;;5073692;28;20082;-66
2021/01/23 09:00:10;;;;;;;9.65;4.80;;;4.20;99.90;;;;;;5073974;28;20076;-66
2021/01/23 09:02:39;;;;;;;7.47;3.85;;;4.20;99.90;;;;;;5067268;28;20089;-66
2021/01/23 09:05:06;;;;;;;10.52;4.85;;;4.20;99.90;;;;;;5063543;28;20086;-66
2021/01/23 09:07:32;;;;;;;10.55;5.22;;;4.20;99.90;;;;;;5061757;28;20048;-66
2021/01/23 09:09:58;;;;;;;10.55;4.93;;;4.20;99.90;;;;;;5072835;28;20123;-66
2021/01/23 09:12:25;;;;;;;9.82;5.10;;;4.20;99.90;;;;;;5074267;28;20070;-66
2021/01/23 09:14:51;;;;;;;6.82;4.78;;;4.20;99.90;;;;;;5073829;28;20048;-66
2021/01/23 09:17:17;;;;;;;8.82;5.28;;;4.20;99.90;;;;;;5072231;28;20086;-66
2021/01/23 09:19:44;;;;;;;9.93;5.05;;;4.20;99.90;;;;;;5073269;28;20044;-66
2021/01/23 09:22:10;;;;;;;7.85;4.72;;;4.30;99.90;;;;;;5069650;28;20045;-66
2021/01/23 09:24:37;;;;;;;14.05;6.00;;;4.30;99.90;;;;;;5066051;28;20506;-66
2021/01/23 09:27:04;;;;;;;11.32;5.13;;;4.40;99.90;;;;;;5078454;28;20128;-66
2021/01/23 09:29:31;;;;;;;9.65;5.28;;;4.40;99.90;;;;;;5067409;28;20147;-66
2021/01/23 09:31:59;;;;;;;7.43;4.15;;;4.40;99.90;;;;;;5078545;28;20055;-66
2021/01/23 09:34:27;;;;;;;9.03;4.47;;;4.40;99.90;;;;;;5080366;28;20078;-66
2021/01/23 09:36:54;;;;;;;8.90;4.30;;;4.40;99.90;;;;;;5075964;28;20761;-66
2021/01/23 09:39:20;;;;;;;6.95;4.13;;;4.40;99.90;;;;;;5074970;28;20291;-66
2021/01/23 09:41:46;;;;;;;7.90;4.30;;;4.40;99.90;;;;;;5063369;28;20056;-66
2021/01/23 09:44:13;;;;;;;7.88;4.10;;;4.40;99.90;;;;;;5074370;28;20068;-66
2021/01/23 09:46:39;;;;;;;8.75;4.30;;;4.40;99.90;;;;;;5073114;28;20086;-66
2021/01/23 09:49:06;;;;;;;8.55;3.83;;;4.50;99.90;;;;;;5074324;28;20044;-66
2021/01/23 09:51:32;;;;;;;7.50;3.85;;;4.50;99.90;;;;;;5085352;28;20051;-66
2021/01/23 09:53:59;;;;;;;9.07;4.13;;;4.50;99.90;;;;;;5076614;28;20048;-66
2021/01/23 09:56:25;;;;;;;7.85;4.32;;;4.60;99.90;;;;;;5083150;28;20072;-66
2021/01/23 09:58:51;;;;;;;7.13;3.65;;;4.60;99.90;;;;;;5074288;28;20106;-66
2021/01/23 10:01:18;;;;;;;5.60;3.83;;;4.60;99.90;;;;;;5065330;28;20049;-66
2021/01/23 10:03:44;;;;;;;11.27;4.93;;;4.60;99.90;;;;;;5066432;28;20123;-66
2021/01/23 10:06:11;;;;;;;7.00;4.50;;;4.60;99.90;;;;;;5062036;28;20215;-66
2021/01/23 10:08:37;;;;;;;7.63;4.55;;;4.70;99.90;;;;;;5071568;28;20049;-66
2021/01/23 10:11:03;;;;;;;11.20;4.70;;;4.80;99.90;;;;;;5073593;28;20044;-66
2021/01/23 10:13:29;;;;;;;7.72;4.60;;;4.80;99.90;;;;;;5074176;28;20054;-66
2021/01/23 10:15:56;;;;;;;7.95;4.65;;;4.90;99.90;;;;;;5074721;28;20058;-67
2021/01/23 10:18:24;;;;;;;6.35;3.95;;;5.00;99.90;;;;;;5068566;28;20048;-67
2021/01/23 10:20:50;;;;;;;6.90;3.93;;;5.10;99.90;;;;;;5076689;28;20089;-67
2021/01/23 10:23:17;;;;;;;6.80;4.25;;;5.20;99.90;;;;;;5066530;28;20323;-66
2021/01/23 10:25:44;;;;;;;6.65;4.30;;;5.30;99.90;;;;;;5066179;28;20045;-66
2021/01/23 10:28:10;;;;;;;7.40;5.00;;;5.30;99.90;;;;;;5070699;28;20127;-66
2021/01/23 10:30:36;;;;;;;8.60;4.13;;;5.30;99.90;;;;;;5072947;28;20135;-66
2021/01/23 10:33:03;;;;;;;8.70;4.53;;;5.30;99.90;;;;;;5078910;28;20058;-66
2021/01/23 10:35:30;;;;;;;7.57;4.05;;;5.30;99.90;;;;;;5066180;28;20147;-66
2021/01/23 10:37:57;;;;;;;8.43;3.95;;;5.30;99.90;;;;;;5061693;28;20426;-66
2021/01/23 10:40:23;;;;;;;8.55;4.38;;;5.30;99.90;;;;;;5065574;28;20083;-66
2021/01/23 10:42:49;;;;;;;6.03;4.18;;;5.30;99.90;;;;;;5067775;28;20429;-66
2021/01/23 10:45:15;;;;;;;7.32;4.60;;;5.30;99.90;;;;;;5059470;28;20051;-66
2021/01/23 10:47:42;;;;;;;6.40;3.80;;;5.30;99.90;;;;;;5055051;28;20056;-67
2021/01/23 10:50:09;;;;;;;6.95;3.85;;;5.30;99.90;;;;;;5070464;28;20454;-67
2021/01/23 10:52:35;;;;;;;6.10;3.85;;;5.20;99.90;;;;;;5069853;28;20052;-67
2021/01/23 10:55:02;;;;;;;7.72;4.00;;;5.20;99.90;;;;;;5071434;28;20060;-67
2021/01/23 10:57:29;;;;;;;7.25;3.65;;;5.10;99.90;;;;;;5072354;28;20682;-67
2021/01/23 10:59:55;;;;;;;6.88;4.10;;;5.10;99.90;;;;;;5071154;28;20045;-68
2021/01/23 11:02:21;;;;;;;5.10;3.47;;;5.20;99.90;;;;;;5071838;28;20075;-67
2021/01/23 11:04:48;;;;;;;4.78;3.35;;;5.30;99.90;;;;;;5071933;28;20048;-67
2021/01/23 11:07:14;;;;;;;5.25;3.03;;;5.30;99.90;;;;;;5072093;28;20055;-67
2021/01/23 11:09:41;;;;;;;6.05;3.20;;;5.40;99.90;;;;;;5071686;28;20048;-68
2021/01/23 11:12:08;;;;;;;6.15;3.35;;;5.40;99.90;;;;;;5071828;28;20054;-68
2021/01/23 11:14:35;;;;;;;5.72;3.25;;;5.40;99.90;;;;;;5071876;28;20155;-68
2021/01/23 11:17:02;;;;;;;5.38;3.40;;;5.40;99.90;;;;;;5071261;28;20041;-67
2021/01/23 11:19:29;;;;;;;6.15;3.42;;;5.40;99.90;;;;;;5070779;28;20417;-67
2021/01/23 11:21:56;;;;;;;5.28;2.95;;;5.40;99.90;;;;;;5071167;28;20548;-67
2021/01/23 11:24:22;;;;;;;5.95;3.40;;;5.40;99.90;;;;;;5070985;28;20136;-67
2021/01/23 11:26:49;;;;;;;7.10;3.10;;;5.30;99.90;;;;;;5071858;28;20056;-68
2021/01/23 11:29:15;;;;;;;4.30;2.65;;;5.30;99.90;;;;;;5068205;28;20057;-68
2021/01/23 11:31:42;;;;;;;5.40;3.15;;;5.30;99.90;;;;;;5071536;28;20059;-68
2021/01/23 11:34:08;;;;;;;7.13;2.97;;;5.40;99.90;;;;;;5069672;28;20102;-68
2021/01/23 11:36:35;;;;;;;4.78;3.30;;;5.40;99.90;;;;;;5070047;28;20171;-68
2021/01/23 11:39:01;;;;;;;6.00;2.75;;;5.50;99.90;;;;;;5070545;28;20040;-67
2021/01/23 11:41:28;;;;;;;5.70;3.58;;;5.50;99.90;;;;;;5070760;28;20060;-67
2021/01/23 11:43:54;;;;;;;3.88;2.83;;;5.60;99.90;;;;;;5066155;28;20040;-67
2021/01/23 11:46:21;;;;;;;4.30;2.63;;;5.70;99.90;;;;;;5071171;28;20047;-67
2021/01/23 11:48:47;;;;;;;6.72;3.08;;;5.70;99.90;;;;;;5071240;28;20068;-67
2021/01/23 11:51:13;;;;;;;5.32;3.08;;;5.80;99.90;;;;;;5070715;28;20044;-67
2021/01/23 11:53:39;;;;;;;5.22;3.03;;;5.80;99.90;;;;;;5070154;28;20045;-67
2021/01/23 11:56:06;;;;;;;3.88;2.95;;;5.90;99.90;;;;;;5070279;28;20144;-67
2021/01/23 11:58:32;;;;;;;6.82;3.35;;;6.00;99.90;;;;;;5070566;28;20127;-67
2021/01/23 12:00:59;;;;;;;5.18;3.00;;;6.00;99.90;;;;;;5070366;28;20118;-67
2021/01/23 12:03:25;;;;;;;6.25;3.67;;;6.10;99.90;;;;;;5071682;28;20490;-68
2021/01/23 12:05:51;;;;;;;5.85;3.70;;;6.30;99.90;;;;;;5071436;28;20048;-67
2021/01/23 12:08:17;;;;;;;6.57;4.00;;;6.60;99.90;;;;;;5070792;28;20053;-67
2021/01/23 12:10:44;;;;;;;5.22;3.47;;;6.90;99.90;;;;;;5068040;28;20132;-67
2021/01/23 12:13:11;;;;;;;6.75;4.28;;;7.20;99.90;;;;;;5067035;28;20385;-67
2021/01/23 12:15:38;;;;;;;6.03;4.07;;;7.40;99.90;;;;;;5058779;28;20135;-67
2021/01/23 12:18:05;;;;;;;6.47;4.35;;;7.50;99.90;;;;;;5096932;28;20079;-67
2021/01/23 12:20:33;;;;;;;6.43;4.47;;;7.60;99.90;;;;;;5072127;28;20391;-67
2021/01/23 12:22:59;;;;;;;5.72;4.38;;;7.60;99.90;;;;;;5070766;28;20053;-67
2021/01/23 12:25:26;;;;;;;7.05;4.85;;;7.70;99.90;;;;;;5070820;28;20058;-67
2021/01/23 12:27:53;;;;;;;7.35;5.07;;;7.60;99.90;;;;;;5071221;28;20138;-67
2021/01/23 12:30:20;;;;;;;8.40;5.32;;;7.40;99.90;;;;;;5068722;28;20055;-66
2021/01/23 12:32:47;;;;;;;8.40;5.72;;;7.30;99.90;;;;;;5070517;28;20531;-66
2021/01/23 12:35:14;;;;;;;6.50;4.55;;;7.20;99.90;;;;;;5075528;28;20060;-67
2021/01/23 12:37:43;;;;;;;6.18;4.60;;;7.10;99.90;;;;;;5070139;28;20044;-66
2021/01/23 12:40:09;;;;;;;7.53;4.40;;;7.00;99.90;;;;;;5071912;28;20368;-66
2021/01/23 12:42:36;;;;;;;7.43;4.10;;;6.90;99.90;;;;;;5073894;28;20384;-66
2021/01/23 12:45:04;;;;;;;8.23;4.60;;;6.80;99.90;;;;;;5072336;28;20048;-66
2021/01/23 12:47:32;;;;;;;8.23;4.40;;;6.80;99.90;;;;;;5076458;28;20087;-66
2021/01/23 12:49:58;;;;;;;5.18;3.75;;;6.70;99.90;;;;;;5069581;28;20059;-66
2021/01/23 12:52:24;;;;;;;7.13;4.20;;;6.70;99.90;;;;;;5074247;28;20065;-67
2021/01/23 12:54:51;;;;;;;5.45;3.63;;;6.60;99.90;;;;;;5072725;28;20403;-66
2021/01/23 12:57:17;;;;;;;6.30;4.15;;;6.60;99.90;;;;;;5074900;28;20093;-66
2021/01/23 12:59:43;;;;;;;7.50;4.75;;;6.60;99.90;;;;;;5075090;28;20456;-66
2021/01/23 13:02:10;;;;;;;7.60;4.35;;;6.60;99.90;;;;;;5070972;28;20468;-66
2021/01/23 13:04:36;;;;;;;6.93;4.45;;;6.60;99.90;;;;;;5073324;28;20124;-66
2021/01/23 13:07:03;;;;;;;8.27;4.10;;;6.60;99.90;;;;;;5071141;28;20063;-66
2021/01/23 13:09:29;;;;;;;6.93;4.15;;;6.60;99.90;;;;;;5074258;28;20500;-66